Terminal Aerodrome Forecast
Issued by NWS

Home | Current Version | Previous Version | Text Only | Print | Product List | Glossary On
Versions: 1 2 3 4 5 6 7 8 9 10 11 12 13 14 15 16 17 18 19 20 21 22 23 24
000
FTUS41 KOKX 311400 AAA
TAFTEB
TAF AMD
KTEB 311431Z 3115/0112 02005KT P6SM BKN040
     FM312000 07007KT P6SM BKN035
      TEMPO 3123/0103 -RA
     FM010300 04008KT P6SM -RA OVC025
     FM010800 03012G17KT 5SM -RA BR OVC020=

USA.gov is the U.S. government's official web portal to all federal, state and local government web resources and services.